Time;durP1;ratioP1;P1;durP2;ratioP2;P2;SDS_P1;SDS_P2;PMS_P1;PMS_P2;Temp;Humidity;BMP_temperature;BMP_pressure;BME280_temperature;BME280_humidity;BME280_pressure;Samples;Min_cycle;Max_cycle;Signal;HPM_P1;HPM_P2
2022/04/15 00:01:51;;;;;;;10.43;8.82;;;;;;;14.85;64.91;100741.81;10232867;28;20807;-61
2022/04/15 00:06:52;;;;;;;10.07;9.07;;;;;;;14.78;64.76;100729.94;10234880;28;20489;-62
2022/04/15 00:11:55;;;;;;;10.13;9.23;;;;;;;14.78;64.37;100746.03;10231441;28;20051;-63
2022/04/15 00:16:57;;;;;;;10.48;9.38;;;;;;;14.77;64.33;100747.03;10224832;28;20151;-61
2022/04/15 00:21:58;;;;;;;11.02;10.02;;;;;;;14.64;63.91;100747.28;10244593;28;20902;-61
2022/04/15 00:27:00;;;;;;;12.77;9.65;;;;;;;14.61;65.34;100752.09;10233510;28;20055;-64
2022/04/15 00:32:01;;;;;;;10.27;9.25;;;;;;;14.62;66.11;100754.63;10236229;28;20426;-61
2022/04/15 00:37:03;;;;;;;11.25;9.18;;;;;;;14.56;66.64;100743.56;10233747;28;20086;-62
2022/04/15 00:42:08;;;;;;;10.23;9.07;;;;;;;14.53;66.79;100755.41;10248664;28;20670;-62
2022/04/15 00:47:18;;;;;;;10.32;9.27;;;;;;;14.54;66.63;100753.59;10230480;28;20133;-61
2022/04/15 00:52:21;;;;;;;10.75;9.43;;;;;;;14.47;67.17;100746.09;10229280;28;21339;-61
2022/04/15 00:57:25;;;;;;;10.15;9.25;;;;;;;14.21;67.78;100718.94;10231824;28;20133;-62
2022/04/15 01:02:28;;;;;;;;;;;;;;;14.29;67.93;100745.03;10229378;28;20221;-62
2022/04/15 01:07:34;;;;;;;11.07;9.95;;;;;;;14.25;67.29;100757.03;10230008;28;20858;-61
2022/04/15 01:12:40;;;;;;;11.70;10.55;;;;;;;14.26;67.50;100750.66;10233331;28;20047;-61
2022/04/15 01:17:42;;;;;;;11.10;9.60;;;;;;;14.24;66.98;100768.69;10229066;28;20047;-62
2022/04/15 01:22:45;;;;;;;11.02;9.88;;;;;;;14.18;66.63;100755.84;10227409;28;20055;-62
2022/04/15 01:27:48;;;;;;;12.10;11.10;;;;;;;13.89;66.17;100732.50;10222873;28;20113;-62
2022/04/15 01:32:49;;;;;;;11.82;10.73;;;;;;;14.00;65.88;100753.78;10233761;28;20051;-60
2022/04/15 01:37:53;;;;;;;11.10;10.13;;;;;;;13.89;66.08;100772.63;10232502;28;20103;-63
2022/04/15 01:42:54;;;;;;;12.52;11.32;;;;;;;13.85;66.13;100766.69;10228607;28;20051;-60
2022/04/15 01:47:56;;;;;;;12.07;10.95;;;;;;;13.76;66.10;100757.59;10241493;28;20114;-60
2022/04/15 01:52:58;;;;;;;12.48;11.40;;;;;;;13.71;67.32;100781.25;10236592;28;20430;-62
2022/04/15 01:58:00;;;;;;;12.90;11.73;;;;;;;13.62;67.24;100774.00;10235584;28;20102;-61
2022/04/15 02:03:02;;;;;;;12.23;11.02;;;;;;;13.71;67.30;100780.41;10237657;28;20807;-61
2022/04/15 02:08:04;;;;;;;11.43;10.48;;;;;;;13.67;67.21;100774.44;10237574;28;20053;-61
2022/04/15 02:13:06;;;;;;;11.90;10.65;;;;;;;13.65;67.32;100775.59;10237713;28;20057;-61
2022/04/15 02:18:08;;;;;;;12.98;11.05;;;;;;;13.67;67.51;100800.38;10242676;28;20698;-61
2022/04/15 02:23:09;;;;;;;12.68;11.48;;;;;;;13.58;67.91;100793.97;10233784;28;20197;-61
2022/04/15 02:28:11;;;;;;;12.75;11.63;;;;;;;13.53;68.19;100804.22;10239335;28;20055;-61
2022/04/15 02:33:12;;;;;;;12.98;11.68;;;;;;;13.50;68.31;100799.13;10238199;28;20078;-61
2022/04/15 02:38:13;;;;;;;12.85;11.60;;;;;;;13.42;68.57;100789.91;10238802;28;20055;-62
2022/04/15 02:43:15;;;;;;;13.82;12.52;;;;;;;13.48;68.55;100801.06;10234887;28;20065;-60
2022/04/15 02:48:17;;;;;;;12.63;11.52;;;;;;;13.37;69.18;100805.47;10236536;28;20051;-61
2022/04/15 02:53:20;;;;;;;13.25;12.05;;;;;;;13.36;69.23;100806.47;10234444;28;20054;-61
2022/04/15 02:58:21;;;;;;;12.95;11.75;;;;;;;13.38;69.76;100801.00;10230582;28;20059;-61
2022/04/15 03:03:23;;;;;;;12.95;11.75;;;;;;;13.27;70.32;100804.56;10231215;28;20050;-61
2022/04/15 03:08:24;;;;;;;12.98;11.70;;;;;;;13.16;70.95;100796.56;10235189;28;20059;-60
2022/04/15 03:13:26;;;;;;;12.05;10.95;;;;;;;13.33;70.62;100806.72;10234404;28;20062;-61
2022/04/15 03:18:27;;;;;;;13.65;10.82;;;;;;;13.16;71.88;100809.91;10236367;28;20046;-60
2022/04/15 03:23:29;;;;;;;11.55;10.45;;;;;;;13.08;73.07;100814.06;10235716;28;20531;-61
2022/04/15 03:28:30;;;;;;;11.82;10.52;;;;;;;12.98;73.38;100810.44;10233831;28;20047;-60
2022/04/15 03:33:32;;;;;;;13.48;12.25;;;;;;;12.91;73.56;100817.28;10231821;28;20759;-61
2022/04/15 03:38:34;;;;;;;11.93;10.73;;;;;;;12.68;73.29;100787.91;10234385;28;20053;-61
2022/04/15 03:43:35;;;;;;;12.23;11.02;;;;;;;12.70;73.65;100823.41;10237654;28;20122;-60
2022/04/15 03:48:37;;;;;;;12.65;11.45;;;;;;;12.60;73.80;100833.09;10233344;28;20055;-60
2022/04/15 03:53:38;;;;;;;11.52;10.50;;;;;;;12.71;73.50;100840.25;10231477;28;20129;-61
2022/04/15 03:58:40;;;;;;;12.18;11.07;;;;;;;12.59;73.02;100826.06;10233542;28;20057;-60
2022/04/15 04:03:41;;;;;;;11.88;10.77;;;;;;;12.61;73.06;100848.16;10238754;28;20452;-60
2022/04/15 04:08:49;;;;;;;12.52;11.23;;;;;;;12.63;72.89;100838.19;10227229;28;20043;-60
2022/04/15 04:13:52;;;;;;;13.00;11.70;;;;;;;12.59;72.71;100831.41;10233123;28;20082;-60
2022/04/15 04:18:54;;;;;;;13.52;12.23;;;;;;;12.60;72.99;100846.47;10228247;28;20070;-60
2022/04/15 04:23:55;;;;;;;12.35;11.02;;;;;;;12.60;72.79;100846.47;10233257;28;20565;-67
2022/04/15 04:28:56;;;;;;;13.23;11.98;;;;;;;12.61;73.07;100853.50;10234888;28;20047;-61
2022/04/15 04:33:57;;;;;;;11.70;10.48;;;;;;;12.63;73.19;100859.56;10233553;28;20055;-61
2022/04/15 04:38:59;;;;;;;19.15;17.35;;;;;;;12.53;73.68;100855.94;10231617;28;20118;-62
2022/04/15 04:44:00;;;;;;;15.30;13.77;;;;;;;12.38;73.68;100844.63;10232125;28;20082;-61
2022/04/15 04:49:02;;;;;;;13.50;12.13;;;;;;;12.42;73.96;100869.28;10233208;28;20051;-62
2022/04/15 04:54:03;;;;;;;13.60;12.18;;;;;;;12.47;73.84;100891.13;10231694;28;20043;-61
2022/04/15 04:59:04;;;;;;;14.13;12.73;;;;;;;12.43;73.72;100887.84;10233955;28;20058;-60
2022/04/15 05:04:06;;;;;;;14.73;13.10;;;;;;;12.40;73.30;100873.88;10229957;28;20046;-62
2022/04/15 05:09:07;;;;;;;13.45;12.23;;;;;;;12.44;73.29;100891.38;10226912;28;20062;-61
2022/04/15 05:14:09;;;;;;;14.30;12.90;;;;;;;12.41;73.22;100888.94;10231399;28;20050;-61
2022/04/15 05:19:10;;;;;;;14.60;13.20;;;;;;;12.50;72.33;100899.72;10232195;28;20057;-61
2022/04/15 05:24:12;;;;;;;14.35;12.82;;;;;;;12.62;71.74;100905.94;10243822;28;20137;-61
2022/04/15 05:29:13;;;;;;;13.45;12.15;;;;;;;12.67;71.41;100909.13;10243232;28;20054;-60
2022/04/15 05:34:15;;;;;;;14.30;12.90;;;;;;;12.73;71.07;100907.78;10244855;28;20391;-61
2022/04/15 05:39:16;;;;;;;13.63;12.32;;;;;;;12.79;70.31;100914.44;10245691;28;20061;-65
2022/04/15 05:44:18;;;;;;;13.48;12.23;;;;;;;12.75;69.97;100908.50;10241633;28;20162;-62
2022/04/15 05:49:19;;;;;;;13.93;12.63;;;;;;;12.90;69.39;100922.47;10238368;28;20421;-63
2022/04/15 05:54:20;;;;;;;12.40;11.20;;;;;;;12.95;69.17;100922.94;10215487;28;20065;-62
2022/04/15 05:59:23;;;;;;;14.07;12.50;;;;;;;13.11;68.62;100927.06;10226305;28;20050;-61
2022/04/15 06:04:24;;;;;;;13.15;11.98;;;;;;;13.22;69.29;100929.72;10222835;28;20057;-63
2022/04/15 06:09:25;;;;;;;14.18;12.88;;;;;;;13.15;69.84;100917.81;10220825;28;20057;-62
2022/04/15 06:14:33;;;;;;;14.18;12.93;;;;;;;13.34;69.45;100930.56;10220176;28;20699;-61
2022/04/15 06:19:34;;;;;;;13.10;11.88;;;;;;;13.56;68.76;100927.84;10221132;28;20062;-61
2022/04/15 06:24:40;;;;;;;14.52;13.23;;;;;;;13.78;67.69;100944.78;10219659;28;20506;-62
2022/04/15 06:29:41;;;;;;;13.77;12.38;;;;;;;13.94;66.54;100942.50;10216159;28;20063;-61
2022/04/15 06:34:43;;;;;;;12.30;11.20;;;;;;;14.06;65.72;100932.59;10221272;28;20055;-61
2022/04/15 06:39:50;;;;;;;12.13;11.05;;;;;;;14.29;65.13;100952.09;10217904;28;20055;-60
2022/04/15 06:44:51;;;;;;;12.05;10.95;;;;;;;14.37;64.46;100950.59;10220638;28;20065;-61
2022/04/15 06:49:53;;;;;;;11.68;10.57;;;;;;;14.50;64.17;100945.84;10221315;28;20467;-61
2022/04/15 06:54:54;;;;;;;12.32;11.15;;;;;;;14.76;63.69;100962.41;10224099;28;20058;-61
2022/04/15 06:59:56;;;;;;;12.82;11.27;;;;;;;14.90;62.32;100953.16;10224274;28;20063;-61
2022/04/15 07:04:57;;;;;;;10.68;9.68;;;;;;;15.13;61.56;100959.19;10216556;28;20057;-63
2022/04/15 07:09:58;;;;;;;11.70;10.60;;;;;;;15.29;60.91;100968.53;10218046;28;20058;-64
2022/04/15 07:15:00;;;;;;;10.30;9.30;;;;;;;15.54;59.82;100975.25;10215255;28;20097;-61
2022/04/15 07:20:03;;;;;;;10.50;9.60;;;;;;;15.69;59.48;100963.09;10219788;28;20059;-62
2022/04/15 07:25:04;;;;;;;9.68;7.88;;;;;;;15.90;58.04;100965.69;10213700;28;20058;-63
2022/04/15 07:30:07;;;;;;;8.10;7.32;;;;;;;16.40;57.49;100975.41;10211387;28;20082;-61
2022/04/15 07:35:08;;;;;;;8.48;7.50;;;;;;;16.45;56.11;100977.66;10211273;28;20183;-59
2022/04/15 07:40:11;;;;;;;9.05;8.18;;;;;;;16.61;56.25;100977.06;10230750;28;20055;-61
2022/04/15 07:45:12;;;;;;;6.43;5.82;;;;;;;16.66;54.30;100987.38;10215928;28;20085;-60
2022/04/15 07:50:14;;;;;;;6.00;5.10;;;;;;;17.17;52.94;100990.63;10216189;28;20511;-62
2022/04/15 07:55:15;;;;;;;3.88;3.33;;;;;;;17.59;50.76;100990.13;10217251;28;20059;-60
2022/04/15 08:00:17;;;;;;;4.15;3.08;;;;;;;17.77;49.85;100982.91;10219421;28;20062;-62
2022/04/15 08:05:18;;;;;;;6.85;5.85;;;;;;;18.14;49.32;100983.78;10222126;28;20047;-62
2022/04/15 08:10:20;;;;;;;5.78;4.80;;;;;;;18.23;48.66;100982.84;10223840;28;20046;-62
2022/04/15 08:15:21;;;;;;;4.50;3.65;;;;;;;18.07;48.14;100993.50;10217297;28;20054;-62
2022/04/15 08:20:23;;;;;;;6.45;5.47;;;;;;;18.10;48.84;100987.78;10213291;28;20053;-63
2022/04/15 08:25:24;;;;;;;6.00;3.80;;;;;;;18.60;46.24;100991.72;10213730;28;20061;-62
2022/04/15 08:30:25;;;;;;;3.15;2.20;;;;;;;18.79;45.72;100993.34;10214950;28;20930;-62
2022/04/15 08:35:27;;;;;;;4.13;3.72;;;;;;;18.74;45.60;100991.13;10214931;28;20644;-62
2022/04/15 08:40:32;;;;;;;2.90;1.73;;;;;;;19.27;43.10;100994.63;10217365;28;20051;-61
2022/04/15 08:45:39;;;;;;;2.83;1.70;;;;;;;19.69;42.00;100985.66;10222049;28;20134;-61
2022/04/15 08:50:45;;;;;;;3.08;1.90;;;;;;;19.98;41.50;100980.84;10223868;28;20193;-60
2022/04/15 08:55:47;;;;;;;3.55;2.22;;;;;;;20.41;40.48;100985.06;10210691;28;20065;-62
2022/04/15 09:00:48;;;;;;;1.70;1.45;;;;;;;20.57;40.03;100981.50;10214282;28;20057;-61
2022/04/15 09:05:53;;;;;;;3.55;1.60;;;;;;;20.80;39.45;100989.75;10210959;28;20135;-61
2022/04/15 09:10:57;;;;;;;1.40;1.30;;;;;;;20.81;39.45;100987.91;10209735;28;20046;-61
2022/04/15 09:16:01;;;;;;;2.88;1.15;;;;;;;20.92;38.42;100992.09;10212317;28;20055;-61
2022/04/15 09:21:24;;;;;;;2.75;1.60;;;;;;;21.72;37.02;100996.50;10209384;28;20696;-64
2022/04/15 09:26:26;;;;;;;3.40;1.85;;;;;;;22.24;35.54;101001.22;10223629;28;20047;-62
2022/04/15 09:31:27;;;;;;;3.60;2.38;;;;;;;22.07;37.42;100980.69;10206290;28;20540;-62
2022/04/15 09:36:35;;;;;;;4.90;1.80;;;;;;;22.94;36.73;100988.34;10214767;28;20792;-61
2022/04/15 09:41:51;;;;;;;3.65;1.65;;;;;;;23.42;34.81;100989.81;10232725;28;20061;-61
2022/04/15 09:46:54;;;;;;;3.60;1.83;;;;;;;23.79;34.97;100990.66;10204037;28;20167;-61
2022/04/15 09:51:56;;;;;;;5.43;3.27;;;;;;;24.25;32.89;100981.31;10212496;28;20051;-61
2022/04/15 09:56:59;;;;;;;2.70;1.43;;;;;;;23.96;34.87;100994.88;10212724;28;20088;-62
2022/04/15 10:02:05;;;;;;;1.92;1.45;;;;;;;23.00;35.37;100985.91;10213575;28;20407;-61
2022/04/15 10:07:08;;;;;;;2.22;0.60;;;;;;;23.25;33.97;100973.75;10215446;28;20043;-63
2022/04/15 10:12:10;;;;;;;2.17;0.70;;;;;;;24.81;31.46;100977.78;10220580;28;20058;-62
2022/04/15 10:17:12;;;;;;;3.30;1.30;;;;;;;23.86;33.25;100974.47;10215696;28;20061;-62
2022/04/15 10:22:15;;;;;;;1.88;1.08;;;;;;;24.76;31.59;100974.81;10215212;28;20050;-62
2022/04/15 10:27:24;;;;;;;4.53;1.37;;;;;;;25.31;30.65;100981.22;10219916;28;20057;-64
2022/04/15 10:32:26;;;;;;;2.05;0.70;;;;;;;24.79;31.39;100975.25;10220833;28;21143;-62
2022/04/15 10:37:46;;;;;;;15.15;11.13;;;;;;;25.11;30.17;100974.81;10218025;28;20050;-62
2022/04/15 10:42:48;;;;;;;1.73;0.88;;;;;;;25.53;29.19;100970.19;10215708;28;20057;-63
2022/04/15 10:47:59;;;;;;;3.88;2.22;;;;;;;26.27;28.52;100961.09;10215974;28;20054;-63
2022/04/15 10:53:26;;;;;;;2.85;1.98;;;;;;;33.51;19.63;100953.78;10218058;28;20162;-63
2022/04/15 10:58:27;;;;;;;2.38;1.08;;;;;;;36.96;15.94;100950.28;10216119;28;20061;-61
2022/04/15 11:03:31;;;;;;;1.77;1.00;;;;;;;38.98;13.32;100948.34;10216462;28;20058;-63
2022/04/15 11:08:47;;;;;;;4.15;1.08;;;;;;;34.23;17.49;100951.66;10216010;28;20110;-62
2022/04/15 11:13:48;;;;;;;2.25;0.63;;;;;;;33.83;18.19;100943.63;10215095;28;20055;-64
2022/04/15 11:19:00;;;;;;;1.23;0.60;;;;;;;37.95;14.43;100924.41;10227727;28;20058;-63
2022/04/15 11:24:07;;;;;;;2.35;0.60;;;;;;;38.67;14.12;100925.66;10221363;28;20051;-64
2022/04/15 11:29:11;;;;;;;2.25;0.30;;;;;;;38.64;13.61;100935.41;10215314;28;20051;-62
2022/04/15 11:34:16;;;;;;;2.05;0.63;;;;;;;41.24;10.88;100926.00;10221030;28;20085;-64
2022/04/15 11:39:22;;;;;;;2.28;0.43;;;;;;;42.40;10.90;100925.34;10218828;28;20059;-64
2022/04/15 11:44:29;;;;;;;1.05;0.25;;;;;;;42.48;10.18;100910.56;10216903;28;20074;-66
2022/04/15 11:49:30;;;;;;;1.33;0.30;;;;;;;39.13;12.54;100910.34;10214139;28;20054;-64
2022/04/15 11:54:33;;;;;;;1.05;0.30;;;;;;;38.76;13.25;100917.50;10211529;28;20146;-64
2022/04/15 11:59:43;;;;;;;1.40;0.50;;;;;;;39.44;12.44;100905.16;10228556;28;20057;-65
2022/04/15 12:04:55;;;;;;;7.20;6.15;;;;;;;40.85;11.38;100917.06;10213628;28;20054;-63
2022/04/15 12:09:57;;;;;;;0.50;0.20;;;;;;;41.01;11.19;100903.63;10216415;28;20051;-64
2022/04/15 12:15:01;;;;;;;1.73;0.70;;;;;;;37.42;13.80;100897.31;10216198;28;20050;-64
2022/04/15 12:20:04;;;;;;;1.33;0.50;;;;;;;33.44;17.11;100907.91;10214427;28;20380;-62
2022/04/15 12:25:15;;;;;;;0.70;0.30;;;;;;;31.23;19.14;100901.88;10214127;28;20836;-64
2022/04/15 12:30:37;;;;;;;0.98;0.40;;;;;;;30.52;20.14;100901.19;10213324;28;20197;-63
2022/04/15 12:36:01;;;;;;;1.20;0.70;;;;;;;29.48;21.66;100903.28;10213853;28;20043;-62
2022/04/15 12:41:12;;;;;;;0.85;0.45;;;;;;;27.75;22.33;100901.31;10211115;28;20433;-60
2022/04/15 12:46:16;;;;;;;;;;;;;;;26.79;24.58;100908.53;10217490;28;20768;-62
2022/04/15 12:51:18;;;;;;;1.52;0.50;;;;;;;27.86;22.84;100913.44;10213145;28;19977;-62
2022/04/15 12:56:23;;;;;;;0.90;0.17;;;;;;;27.56;23.12;100899.56;10214241;28;20056;-63
2022/04/15 13:01:24;;;;;;;0.77;0.40;;;;;;;26.60;24.09;100902.03;10213108;28;20059;-61
2022/04/15 13:06:26;;;;;;;2.40;0.45;;;;;;;27.30;25.13;100894.00;10214658;28;20712;-63
2022/04/15 13:11:28;;;;;;;1.35;0.50;;;;;;;26.44;24.16;100887.78;10215526;28;20050;-61
2022/04/15 13:16:29;;;;;;;2.53;0.80;;;;;;;25.60;25.82;100875.63;10221240;28;20078;-62
2022/04/15 13:21:32;;;;;;;1.47;0.40;;;;;;;25.89;26.99;100895.38;10217719;28;20094;-61
2022/04/15 13:26:33;;;;;;;;;;;;;;;25.90;26.76;100875.25;10219439;28;20461;-61
2022/04/15 13:31:36;;;;;;;0.90;0.50;;;;;;;26.23;25.64;100877.13;10211851;28;19922;-61
2022/04/15 13:36:37;;;;;;;1.73;0.90;;;;;;;26.54;25.73;100870.13;10208526;28;20062;-64
2022/04/15 13:41:39;;;;;;;2.10;1.02;;;;;;;26.54;25.96;100868.25;10210954;28;20151;-63
2022/04/15 13:46:40;;;;;;;1.23;0.80;;;;;;;25.75;26.21;100876.28;10214411;28;20055;-61
2022/04/15 13:51:47;;;;;;;2.92;1.10;;;;;;;24.53;28.21;100881.50;10214033;28;21925;-61
2022/04/15 13:56:48;;;;;;;2.95;1.30;;;;;;;24.51;28.54;100869.13;10219925;28;20059;-64
2022/04/15 14:01:50;;;;;;;2.35;1.40;;;;;;;24.41;28.70;100880.38;10215925;28;20059;-63
2022/04/15 14:06:51;;;;;;;1.77;1.10;;;;;;;23.97;28.97;100879.63;10220439;28;20054;-63
2022/04/15 14:11:53;;;;;;;1.50;1.20;;;;;;;23.63;29.07;100875.75;10219409;28;20153;-62
2022/04/15 14:16:54;;;;;;;1.95;1.17;;;;;;;23.60;30.03;100872.56;10215535;28;20083;-61
2022/04/15 14:21:56;;;;;;;2.10;1.50;;;;;;;23.73;29.94;100890.88;10231795;28;20108;-63
2022/04/15 14:26:57;;;;;;;4.13;1.83;;;;;;;23.11;31.84;100882.31;10217522;28;20589;-63
2022/04/15 14:32:03;;;;;;;3.08;1.60;;;;;;;22.66;33.47;100903.22;10222573;28;20161;-62
2022/04/15 14:37:04;;;;;;;2.80;1.50;;;;;;;22.25;34.50;100905.28;10211074;28;20506;-63
2022/04/15 14:42:06;;;;;;;2.33;2.08;;;;;;;21.70;35.57;100898.31;10215137;28;20054;-62
2022/04/15 14:47:08;;;;;;;3.67;1.60;;;;;;;21.30;36.07;100900.25;10212795;28;20054;-62
2022/04/15 14:52:09;;;;;;;3.40;2.17;;;;;;;21.13;36.53;100926.56;10215136;28;20177;-62
2022/04/15 14:57:11;;;;;;;3.38;2.55;;;;;;;20.65;37.21;100930.09;10216177;28;20501;-63
2022/04/15 15:02:12;;;;;;;3.28;2.70;;;;;;;20.53;37.45;100925.22;10220911;28;20387;-63
2022/04/15 15:07:14;;;;;;;4.53;2.75;;;;;;;20.02;38.42;100945.19;10222554;28;20542;-62
2022/04/15 15:12:17;;;;;;;3.90;2.40;;;;;;;20.02;37.78;100956.00;10213819;28;20782;-63
2022/04/15 15:17:19;;;;;;;2.50;2.30;;;;;;;19.74;38.73;100961.72;10212279;28;20050;-64
2022/04/15 15:22:20;;;;;;;4.43;3.20;;;;;;;19.31;38.96;100939.31;10217074;28;20065;-63
2022/04/15 15:32:42;;;;;;;3.50;3.20;;;;;;;18.77;40.08;100953.06;10210329;28;20134;-64
2022/04/15 15:37:43;;;;;;;6.45;4.00;;;;;;;18.63;40.27;100965.28;10209333;28;20134;-62
2022/04/15 15:42:45;;;;;;;3.35;2.75;;;;;;;18.34;40.58;100968.28;10208612;28;20586;-65
2022/04/15 15:47:46;;;;;;;4.85;3.00;;;;;;;18.04;41.32;100980.34;10210717;28;20059;-61
2022/04/15 15:52:48;;;;;;;5.38;3.40;;;;;;;18.05;40.96;100973.94;10208599;28;20059;-63
2022/04/15 15:57:50;;;;;;;2.70;2.50;;;;;;;17.88;41.44;100989.94;10210363;28;20055;-63
2022/04/15 16:02:52;;;;;;;4.28;2.22;;;;;;;17.61;41.59;100996.19;10204826;28;20101;-64
2022/04/15 16:07:53;;;;;;;12.65;10.00;;;;;;;17.69;41.12;100985.53;10208473;28;20129;-62
2022/04/15 16:12:55;;;;;;;9.50;7.60;;;;;;;17.41;41.86;101001.69;10207367;28;20051;-60
2022/04/15 16:17:56;;;;;;;7.85;6.65;;;;;;;17.38;41.31;100993.06;10208240;28;20077;-62
2022/04/15 16:22:58;;;;;;;3.85;2.80;;;;;;;17.06;41.45;100997.06;10209089;28;20063;-62
2022/04/15 16:27:59;;;;;;;2.85;1.65;;;;;;;16.68;42.43;101012.25;10209302;28;20051;-61
2022/04/15 16:33:00;;;;;;;3.00;1.80;;;;;;;16.87;41.76;101014.94;10211439;28;20046;-63
2022/04/15 16:38:02;;;;;;;2.63;1.92;;;;;;;16.68;41.85;101009.56;10208449;28;20055;-62
2022/04/15 16:43:03;;;;;;;1.60;1.50;;;;;;;16.79;41.27;101020.16;10205270;28;20051;-66
2022/04/15 16:48:05;;;;;;;1.50;1.15;;;;;;;16.88;41.24;101040.00;10204111;28;20055;-63
2022/04/15 16:53:07;;;;;;;1.30;1.20;;;;;;;16.50;42.04;101047.09;10204743;28;20084;-60
2022/04/15 17:03:28;;;;;;;1.25;0.90;;;;;;;16.20;42.54;101044.44;10203053;28;20053;-63
2022/04/15 17:08:30;;;;;;;1.95;1.30;;;;;;;16.35;42.36;101065.47;10204365;28;20917;-62
2022/04/15 17:13:34;;;;;;;1.70;0.95;;;;;;;15.98;42.71;101068.84;10203634;28;20050;-63
2022/04/15 17:18:37;;;;;;;;;;;;;;;15.93;43.53;101069.28;10232034;23;20859;-62
2022/04/15 17:23:43;;;;;;;5.75;4.05;;;;;;;15.88;43.79;101072.38;10218569;28;19922;-64
2022/04/15 17:28:45;;;;;;;5.28;4.18;;;;;;;15.79;44.15;101077.72;10219003;28;20785;-62
2022/04/15 17:33:46;;;;;;;20.10;14.85;;;;;;;15.73;44.68;101065.66;10218396;28;20062;-62
2022/04/15 17:38:47;;;;;;;6.60;5.30;;;;;;;15.67;44.59;101071.56;10219419;28;20062;-61
2022/04/15 17:43:49;;;;;;;1.75;1.65;;;;;;;15.26;45.48;101087.66;10216380;28;20111;-62
2022/04/15 17:48:51;;;;;;;2.10;1.88;;;;;;;15.20;45.88;101089.03;10215531;28;20050;-62
2022/04/15 17:53:52;;;;;;;5.20;3.72;;;;;;;15.12;45.91;101088.84;10220251;28;20061;-61
2022/04/15 17:58:56;;;;;;;2.83;2.03;;;;;;;14.97;46.41;101107.13;10220757;28;20051;-62
2022/04/15 18:03:57;;;;;;;1.58;1.20;;;;;;;14.90;46.05;101115.81;10219842;28;20242;-61
2022/04/15 18:08:58;;;;;;;1.13;1.02;;;;;;;14.70;46.43;101118.34;10217063;28;20074;-61
2022/04/15 18:14:00;;;;;;;2.83;1.50;;;;;;;14.47;46.93;101131.81;10222124;28;20070;-61
2022/04/15 18:19:01;;;;;;;1.77;1.30;;;;;;;14.22;47.22;101132.16;10215499;28;20061;-61
2022/04/15 18:24:03;;;;;;;1.88;1.50;;;;;;;13.84;47.46;101112.00;10219322;28;20138;-61
2022/04/15 18:29:05;;;;;;;6.72;4.85;;;;;;;14.11;47.25;101163.31;10217670;28;20078;-61
2022/04/15 18:34:07;;;;;;;7.32;5.10;;;;;;;14.05;47.34;101147.75;10216730;28;20055;-64
2022/04/15 18:39:09;;;;;;;7.97;5.47;;;;;;;14.19;47.37;101168.06;10215625;28;20101;-63
2022/04/15 18:44:11;;;;;;;5.63;4.32;;;;;;;14.03;48.44;101171.09;10217468;28;20756;-61
2022/04/15 18:54:53;;;;;;;2.30;2.00;;;;;;;13.89;48.73;101185.59;10218535;28;20053;-63
2022/04/15 18:59:55;;;;;;;3.00;2.33;;;;;;;13.77;48.49;101184.75;10217909;28;20235;-61
2022/04/15 19:04:57;;;;;;;7.53;3.25;;;;;;;13.85;50.15;101199.34;10217818;28;20057;-63
2022/04/15 19:09:58;;;;;;;10.13;3.97;;;;;;;14.35;52.72;101210.47;10216138;28;20059;-63
2022/04/15 19:15:02;;;;;;;2.88;1.80;;;;;;;14.66;49.74;101199.97;10220639;28;20061;-64
2022/04/15 19:20:06;;;;;;;1.73;1.40;;;;;;;14.76;47.87;101217.00;10218330;28;20050;-64
2022/04/15 19:25:08;;;;;;;3.60;2.97;;;;;;;14.44;47.30;101225.84;10218420;28;20459;-63
2022/04/15 19:30:10;;;;;;;7.57;5.03;;;;;;;14.10;48.09;101225.88;10222404;28;20047;-63
2022/04/15 19:35:11;;;;;;;4.22;3.60;;;;;;;13.62;49.18;101228.78;10220289;28;20057;-62
2022/04/15 19:40:13;;;;;;;3.40;2.92;;;;;;;13.59;49.46;101231.69;10233448;28;20057;-62
2022/04/15 19:45:14;;;;;;;2.38;1.85;;;;;;;13.42;50.16;101224.94;10212284;28;20161;-62
2022/04/15 19:50:15;;;;;;;2.83;2.22;;;;;;;13.29;50.42;101225.03;10213187;28;20047;-61
2022/04/15 19:55:17;;;;;;;10.43;7.95;;;;;;;13.23;50.57;101230.84;10215966;28;20047;-63
2022/04/15 20:05:41;;;;;;;2.70;2.50;;;;;;;13.05;50.78;101233.94;10213131;28;20425;-63
2022/04/15 20:10:44;;;;;;;3.63;2.70;;;;;;;13.14;51.23;101252.94;10211624;28;20471;-63
2022/04/15 20:15:47;;;;;;;2.67;2.47;;;;;;;13.09;51.17;101247.94;10214747;28;20687;-62
2022/04/15 20:20:50;;;;;;;2.78;2.38;;;;;;;13.02;51.19;101255.56;10212418;28;20053;-62
2022/04/15 20:25:52;;;;;;;3.20;3.00;;;;;;;13.00;51.32;101261.97;10211343;28;20641;-61
2022/04/15 20:30:53;;;;;;;2.65;2.45;;;;;;;12.94;51.37;101255.28;10211225;28;20039;-61
2022/04/15 20:35:55;;;;;;;3.80;3.00;;;;;;;12.81;51.69;101257.16;10210156;28;20553;-61
2022/04/15 20:41:00;;;;;;;11.15;8.98;;;;;;;12.80;51.46;101252.78;10214392;28;20059;-62
2022/04/15 20:46:01;;;;;;;14.63;10.80;;;;;;;12.56;51.81;101237.56;10203808;28;20051;-62
2022/04/15 20:51:03;;;;;;;13.50;9.43;;;;;;;12.62;51.98;101244.28;10208103;28;20050;-62
2022/04/15 20:56:05;;;;;;;6.63;5.43;;;;;;;12.53;51.80;101229.78;10211384;28;20060;-62
2022/04/15 21:01:06;;;;;;;5.22;4.65;;;;;;;12.54;52.17;101259.06;10214581;28;20050;-61
2022/04/15 21:06:08;;;;;;;2.75;2.40;;;;;;;12.48;51.95;101262.19;10212019;28;20137;-62
2022/04/15 21:11:09;;;;;;;3.33;3.03;;;;;;;12.19;53.26;101272.28;10213403;28;20053;-62
2022/04/15 21:16:10;;;;;;;4.25;2.67;;;;;;;12.38;53.25;101255.78;10213382;28;20047;-63
2022/04/15 21:21:12;;;;;;;5.35;4.40;;;;;;;12.41;53.09;101268.06;10218830;28;20775;-62
2022/04/15 21:26:13;;;;;;;5.57;3.97;;;;;;;12.30;53.03;101252.84;10233333;28;20562;-61
2022/04/15 21:31:15;;;;;;;3.50;3.17;;;;;;;12.32;52.89;101270.44;10229662;28;20058;-64
2022/04/15 21:36:21;;;;;;;3.60;2.58;;;;;;;12.29;53.58;101273.31;10227971;28;20117;-63
2022/04/15 21:41:22;;;;;;;2.60;2.40;;;;;;;12.25;53.08;101261.19;10230714;28;20533;-62
2022/04/15 21:46:24;;;;;;;3.42;2.83;;;;;;;12.18;53.90;101287.44;10233714;28;20057;-61
2022/04/15 21:56:46;;;;;;;4.13;2.85;;;;;;;11.96;53.54;101272.06;10227507;28;20051;-63
2022/04/15 22:01:51;;;;;;;2.67;2.47;;;;;;;12.06;54.27;101290.13;10244809;28;20051;-64
2022/04/15 22:06:53;;;;;;;3.00;2.63;;;;;;;12.04;54.49;101298.25;10237711;28;20956;-63
2022/04/15 22:11:54;;;;;;;2.53;2.33;;;;;;;12.07;53.72;101303.38;10237038;28;20074;-63
2022/04/15 22:16:56;;;;;;;3.22;2.70;;;;;;;11.93;54.08;101298.97;10237410;28;20043;-61
2022/04/15 22:21:57;;;;;;;2.55;2.35;;;;;;;11.92;54.07;101297.25;10240240;28;20098;-63
2022/04/15 22:26:58;;;;;;;3.15;2.85;;;;;;;11.93;53.70;101314.97;10238292;28;20165;-64
2022/04/15 22:32:00;;;;;;;3.67;2.75;;;;;;;11.98;54.13;101315.53;10232293;28;20202;-64
2022/04/15 22:37:01;;;;;;;2.72;2.50;;;;;;;12.03;54.29;101326.72;10242764;28;20051;-63
2022/04/15 22:42:04;;;;;;;3.22;2.10;;;;;;;12.14;53.75;101328.66;10231548;28;20494;-64
2022/04/15 22:47:17;;;;;;;2.72;2.53;;;;;;;12.20;53.96;101328.25;10235257;28;20047;-64
2022/04/15 22:52:18;;;;;;;3.47;2.53;;;;;;;12.19;54.00;101321.19;10236247;28;20053;-64
2022/04/15 22:57:19;;;;;;;3.85;2.53;;;;;;;12.17;53.85;101322.25;10237678;28;20067;-63
2022/04/15 23:02:21;;;;;;;2.70;2.50;;;;;;;12.06;54.22;101315.00;10238304;28;20141;-64
2022/04/15 23:07:23;;;;;;;3.05;2.28;;;;;;;12.20;53.65;101325.56;10238676;28;20047;-63
2022/04/15 23:12:24;;;;;;;2.72;2.53;;;;;;;12.21;53.80;101326.41;10235499;28;20046;-61
2022/04/15 23:17:25;;;;;;;2.53;2.33;;;;;;;12.22;53.79;101330.81;10241780;28;20053;-61
2022/04/15 23:22:27;;;;;;;2.38;2.17;;;;;;;12.22;54.13;101328.13;10238627;28;20047;-61
2022/04/15 23:27:31;;;;;;;2.95;2.67;;;;;;;12.02;54.64;101302.81;10231556;28;20130;-62
2022/04/15 23:32:32;;;;;;;3.88;3.13;;;;;;;12.16;54.12;101321.41;10235074;28;20061;-63